createdAt,value
2023-01-26T00:01:25.081Z,99554.13
2023-01-26T00:03:54.310Z,99551.00
2023-01-26T00:06:22.299Z,99549.13
2023-01-26T00:08:51.590Z,99550.47
2023-01-26T00:11:33.603Z,99548.31
2023-01-26T00:14:00.627Z,99543.75
2023-01-26T00:16:27.863Z,99541.06
2023-01-26T00:18:54.477Z,99538.31
2023-01-26T00:21:23.429Z,99538.69
2023-01-26T00:23:51.012Z,99534.22
2023-01-26T00:26:20.292Z,99526.09
2023-01-26T00:28:49.908Z,99523.22
2023-01-26T00:31:19.629Z,99517.22
2023-01-26T00:33:46.719Z,99516.94
2023-01-26T00:36:14.771Z,99522.66
2023-01-26T00:38:47.445Z,99519.41
2023-01-26T00:41:32.935Z,99515.84
2023-01-26T00:44:02.515Z,99499.81
2023-01-26T00:46:29.347Z,99502.63
2023-01-26T00:48:57.166Z,99501.22
2023-01-26T00:51:23.753Z,99493.72
2023-01-26T00:53:50.322Z,99493.97
2023-01-26T00:56:16.849Z,99497.28
2023-01-26T00:58:44.765Z,99495.97
2023-01-26T01:01:11.648Z,99499.81
2023-01-26T01:03:41.534Z,99489.44
2023-01-26T01:06:07.973Z,99499.94
2023-01-26T01:08:37.335Z,99492.22
2023-01-26T01:11:10.329Z,99496.00
2023-01-26T01:13:37.477Z,99503.78
2023-01-26T01:16:08.693Z,99506.31
2023-01-26T01:18:36.064Z,99494.44
2023-01-26T01:21:07.539Z,99506.13
2023-01-26T01:23:37.055Z,99496.47
2023-01-26T01:26:05.104Z,99499.22
2023-01-26T01:28:32.705Z,99493.06
2023-01-26T01:31:07.826Z,99491.19
2023-01-26T01:33:35.068Z,99476.94
2023-01-26T01:36:04.558Z,99480.97
2023-01-26T01:38:34.951Z,99484.13
2023-01-26T01:41:01.453Z,99486.00
2023-01-26T01:43:31.610Z,99483.56
2023-01-26T01:46:00.790Z,99476.78
2023-01-26T01:48:54.945Z,99480.16
2023-01-26T01:51:31.277Z,99476.88
2023-01-26T01:54:02.721Z,99477.31
2023-01-26T01:56:30.105Z,99475.38
2023-01-26T01:58:59.706Z,99471.69
2023-01-26T02:01:26.608Z,99472.59
2023-01-26T02:03:56.709Z,99462.84
2023-01-26T02:06:30.175Z,99468.19
2023-01-26T02:08:57.985Z,99464.09
2023-01-26T02:11:41.992Z,99462.13
2023-01-26T02:14:11.535Z,99455.78
2023-01-26T02:16:40.084Z,99448.00
2023-01-26T02:19:21.636Z,99448.97
2023-01-26T02:21:52.629Z,99446.75
2023-01-26T02:24:36.265Z,99442.53
2023-01-26T02:27:05.921Z,99436.00
2023-01-26T02:29:32.611Z,99436.00
2023-01-26T02:31:59.114Z,99433.34
2023-01-26T02:34:28.813Z,99437.47
2023-01-26T02:37:01.577Z,99426.97
2023-01-26T02:39:58.223Z,99432.28
2023-01-26T02:42:41.090Z,99434.06
2023-01-26T02:45:16.101Z,99433.19
2023-01-26T02:47:42.808Z,99437.47
2023-01-26T02:50:10.832Z,99435.13
2023-01-26T02:52:38.565Z,99424.91
2023-01-26T02:55:28.454Z,99433.34
2023-01-26T02:58:01.184Z,99433.88
2023-01-26T03:00:30.812Z,99431.03
2023-01-26T03:03:00.862Z,99428.69
2023-01-26T03:05:28.449Z,99424.44
2023-01-26T03:07:55.849Z,99423.00
2023-01-26T03:10:25.155Z,99426.41
2023-01-26T03:12:52.157Z,99429.81
2023-01-26T03:15:37.580Z,99427.47
2023-01-26T03:18:24.286Z,99430.44
2023-01-26T03:21:09.188Z,99428.47
2023-01-26T03:23:53.807Z,99429.94
2023-01-26T03:26:38.902Z,99422.59
2023-01-26T03:29:05.585Z,99415.72
2023-01-26T03:31:32.207Z,99409.56
2023-01-26T03:33:58.783Z,99404.34
2023-01-26T03:36:25.271Z,99405.25
2023-01-26T03:38:51.743Z,99407.94
2023-01-26T03:41:36.760Z,99403.56
2023-01-26T03:44:21.616Z,99398.38
2023-01-26T03:47:06.289Z,99399.16
2023-01-26T03:49:51.205Z,99399.09
2023-01-26T03:52:35.983Z,99401.53
2023-01-26T03:55:20.903Z,99392.78
2023-01-26T03:57:48.955Z,99393.88
2023-01-26T04:00:15.804Z,99400.03
2023-01-26T04:03:00.749Z,99400.13
2023-01-26T04:05:45.529Z,99394.91
2023-01-26T04:08:24.074Z,99393.88
2023-01-26T04:10:54.547Z,99397.06
2023-01-26T04:13:41.427Z,99388.16
2023-01-26T04:16:28.397Z,99397.88
2023-01-26T04:19:14.208Z,99390.63
2023-01-26T04:21:40.809Z,99391.28
2023-01-26T04:24:16.828Z,99381.72
2023-01-26T04:26:44.157Z,99386.91
2023-01-26T04:29:13.036Z,99380.81
2023-01-26T04:31:40.564Z,99378.97
2023-01-26T04:34:11.674Z,99381.47
2023-01-26T04:36:39.211Z,99383.34
2023-01-26T04:39:05.942Z,99378.00
2023-01-26T04:41:32.825Z,99380.31
2023-01-26T04:43:59.348Z,99380.69
2023-01-26T04:46:26.035Z,99380.78
2023-01-26T04:48:52.909Z,99375.34
2023-01-26T04:51:21.944Z,99378.53
2023-01-26T04:53:50.349Z,99373.19
2023-01-26T04:56:29.535Z,99378.38
2023-01-26T04:58:59.903Z,99383.47
2023-01-26T05:01:26.731Z,99385.63
2023-01-26T05:03:53.363Z,99387.56
2023-01-26T05:06:19.869Z,99379.44
2023-01-26T05:08:46.454Z,99376.91
2023-01-26T05:11:12.934Z,99373.34
2023-01-26T05:13:39.744Z,99373.03
2023-01-26T05:16:07.830Z,99366.22
2023-01-26T05:18:34.337Z,99370.50
2023-01-26T05:21:00.898Z,99371.50
2023-01-26T05:23:27.432Z,99373.63
2023-01-26T05:25:53.950Z,99374.25
2023-01-26T05:28:20.397Z,99377.84
2023-01-26T05:30:47.910Z,99380.53
2023-01-26T05:33:14.983Z,99381.91
2023-01-26T05:35:42.096Z,99380.13
2023-01-26T05:38:08.808Z,99377.91
2023-01-26T05:40:35.264Z,99381.03
2023-01-26T05:43:01.737Z,99384.59
2023-01-26T05:45:28.248Z,99388.00
2023-01-26T05:47:54.926Z,99389.59
2023-01-26T05:50:21.408Z,99382.97
2023-01-26T05:52:48.180Z,99389.28
2023-01-26T05:55:14.795Z,99391.41
2023-01-26T05:57:41.552Z,99388.06
2023-01-26T06:00:09.291Z,99390.19
2023-01-26T06:02:36.053Z,99400.84
2023-01-26T06:05:02.692Z,99398.41
2023-01-26T06:07:29.228Z,99389.91
2023-01-26T06:09:55.699Z,99385.59
2023-01-26T06:12:22.893Z,99388.84
2023-01-26T06:14:49.916Z,99387.38
2023-01-26T06:17:18.268Z,99394.56
2023-01-26T06:19:44.811Z,99398.28
2023-01-26T06:22:13.102Z,99398.28
2023-01-26T06:24:39.624Z,99401.75
2023-01-26T06:27:14.985Z,99408.66
2023-01-26T06:29:45.724Z,99409.00
2023-01-26T06:32:13.092Z,99409.00
2023-01-26T06:34:40.031Z,99409.19
2023-01-26T06:37:07.574Z,99400.41
2023-01-26T06:39:34.301Z,99397.00
2023-01-26T06:42:00.868Z,99397.91
2023-01-26T06:44:27.401Z,99403.34
2023-01-26T06:46:54.153Z,99406.66
2023-01-26T06:49:20.607Z,99412.13
2023-01-26T06:52:03.231Z,99403.59
2023-01-26T06:54:29.780Z,99402.38
2023-01-26T06:56:56.364Z,99412.75
2023-01-26T06:59:23.418Z,99414.38
2023-01-26T07:01:53.353Z,99415.25
2023-01-26T07:04:19.849Z,99414.13
2023-01-26T07:06:46.375Z,99412.59
2023-01-26T07:09:12.867Z,99411.94
2023-01-26T07:11:39.460Z,99414.28
2023-01-26T07:14:06.083Z,99410.63
2023-01-26T07:16:33.821Z,99412.41
2023-01-26T07:19:01.004Z,99411.84
2023-01-26T07:21:27.571Z,99404.75
2023-01-26T07:23:56.036Z,99413.56
2023-01-26T07:26:22.607Z,99410.00
2023-01-26T07:28:49.115Z,99411.97
2023-01-26T07:31:16.955Z,99410.53
2023-01-26T07:33:43.541Z,99410.34
2023-01-26T07:36:11.028Z,99418.47
2023-01-26T07:38:38.136Z,99413.78
2023-01-26T07:41:09.998Z,99416.22
2023-01-26T07:43:39.410Z,99412.81
2023-01-26T07:46:06.571Z,99406.66
2023-01-26T07:48:34.437Z,99412.16
2023-01-26T07:51:03.569Z,99420.47
2023-01-26T07:53:31.072Z,99423.25
2023-01-26T07:56:12.229Z,99417.88
2023-01-26T07:58:39.320Z,99423.97
2023-01-26T08:01:11.451Z,99427.38
2023-01-26T08:03:38.401Z,99429.47
2023-01-26T08:06:05.338Z,99432.53
2023-01-26T08:08:32.315Z,99435.94
2023-01-26T08:11:00.732Z,99436.00
2023-01-26T08:13:35.756Z,99435.47
2023-01-26T08:16:05.537Z,99440.25
2023-01-26T08:18:32.321Z,99443.06
2023-01-26T08:20:58.961Z,99450.84
2023-01-26T08:23:25.456Z,99442.94
2023-01-26T08:25:52.010Z,99437.94
2023-01-26T08:28:20.950Z,99432.44
2023-01-26T08:30:47.694Z,99434.22
2023-01-26T08:33:14.187Z,99431.44
2023-01-26T08:35:43.304Z,99439.72
2023-01-26T08:38:09.797Z,99433.44
2023-01-26T08:40:36.300Z,99425.41
2023-01-26T08:43:03.618Z,99420.59
2023-01-26T08:45:33.344Z,99420.91
2023-01-26T08:47:59.915Z,99421.94
2023-01-26T08:50:26.436Z,99425.63
2023-01-26T08:52:55.813Z,99420.38
2023-01-26T08:55:22.451Z,99426.91
2023-01-26T08:57:55.223Z,99426.59
2023-01-26T09:00:23.715Z,99421.06
2023-01-26T09:02:50.721Z,99421.25
2023-01-26T09:05:17.591Z,99423.78
2023-01-26T09:07:44.606Z,99419.47
2023-01-26T09:10:11.710Z,99423.22
2023-01-26T09:12:40.910Z,99424.56
2023-01-26T09:15:08.796Z,99433.69
2023-01-26T09:17:35.535Z,99423.28
2023-01-26T09:20:07.141Z,99426.84
2023-01-26T09:22:33.636Z,99411.66
2023-01-26T09:25:00.147Z,99421.56
2023-01-26T09:27:27.029Z,99414.75
2023-01-26T09:29:54.009Z,99413.25
2023-01-26T09:32:20.776Z,99419.34
2023-01-26T09:34:47.476Z,99425.44
2023-01-26T09:37:14.585Z,99412.25
2023-01-26T09:39:41.340Z,99412.59
2023-01-26T09:42:22.747Z,99420.19
2023-01-26T09:45:02.784Z,99416.19
2023-01-26T09:47:52.774Z,99418.25
2023-01-26T09:50:25.746Z,99421.75
2023-01-26T09:53:08.010Z,99422.44
2023-01-26T09:55:34.537Z,99419.50
2023-01-26T09:58:06.679Z,99425.53
2023-01-26T10:00:48.823Z,99423.81
2023-01-26T10:03:18.230Z,99426.19
2023-01-26T10:06:10.427Z,99422.56
2023-01-26T10:08:36.808Z,99425.22
2023-01-26T10:11:14.098Z,99424.28
2023-01-26T10:13:47.151Z,99417.66
2023-01-26T10:16:14.837Z,99414.41
2023-01-26T10:18:53.874Z,99413.47
2023-01-26T10:21:25.422Z,99410.38
2023-01-26T10:23:52.561Z,99404.00
2023-01-26T10:26:21.932Z,99397.16
2023-01-26T10:28:51.219Z,99391.13
2023-01-26T10:31:21.797Z,99393.38
2023-01-26T10:34:14.186Z,99387.59
2023-01-26T10:36:42.218Z,99384.22
2023-01-26T10:39:10.892Z,99379.75
2023-01-26T10:41:39.158Z,99377.94
2023-01-26T10:44:40.229Z,99366.84
2023-01-26T10:47:18.349Z,99370.03
2023-01-26T10:49:44.814Z,99364.13
2023-01-26T10:52:22.856Z,99362.66
2023-01-26T10:55:09.910Z,99365.94
2023-01-26T10:57:45.172Z,99361.00
2023-01-26T11:00:30.234Z,99357.59
2023-01-26T11:03:06.180Z,99351.19
2023-01-26T11:05:32.959Z,99351.53
2023-01-26T11:08:00.297Z,99346.47
2023-01-26T11:10:32.921Z,99342.78
2023-01-26T11:13:20.218Z,99345.50
2023-01-26T11:16:22.769Z,99354.84
2023-01-26T11:19:13.586Z,99352.81
2023-01-26T11:21:42.229Z,99350.16
2023-01-26T11:24:34.675Z,99352.25
2023-01-26T11:27:30.013Z,99344.81
2023-01-26T11:30:05.268Z,99344.06
2023-01-26T11:32:46.997Z,99338.47
2023-01-26T11:35:28.388Z,99334.53
2023-01-26T11:38:19.699Z,99335.75
2023-01-26T11:41:14.034Z,99331.56
2023-01-26T11:43:40.479Z,99323.50
2023-01-26T11:46:21.671Z,99314.41
2023-01-26T11:49:16.948Z,99314.09
2023-01-26T11:51:52.247Z,99312.31
2023-01-26T11:54:36.160Z,99309.41
2023-01-26T11:57:44.206Z,99312.50
2023-01-26T12:00:30.157Z,99311.63
2023-01-26T12:03:05.664Z,99299.44
2023-01-26T12:05:44.436Z,99302.03
2023-01-26T12:08:23.083Z,99297.66
2023-01-26T12:10:58.503Z,99290.19
2023-01-26T12:13:38.861Z,99295.94
2023-01-26T12:16:17.062Z,99297.78
2023-01-26T12:19:10.083Z,99295.84
2023-01-26T12:21:40.472Z,99294.28
2023-01-26T12:24:39.241Z,99296.00
2023-01-26T12:27:06.537Z,99285.03
2023-01-26T12:29:52.364Z,99286.56
2023-01-26T12:32:20.521Z,99289.53
2023-01-26T12:34:47.044Z,99292.97
2023-01-26T12:37:38.141Z,99281.59
2023-01-26T12:40:24.822Z,99280.09
2023-01-26T12:43:06.839Z,99273.53
2023-01-26T12:45:39.215Z,99277.50
2023-01-26T12:48:10.256Z,99278.38
2023-01-26T12:50:59.317Z,99277.94
2023-01-26T12:53:40.827Z,99275.13
2023-01-26T12:56:17.073Z,99281.66
2023-01-26T12:58:47.087Z,99269.69
2023-01-26T13:01:13.586Z,99275.56
2023-01-26T13:03:44.603Z,99266.63
2023-01-26T13:06:13.434Z,99268.72
2023-01-26T13:08:41.609Z,99260.66
2023-01-26T13:11:09.575Z,99259.91
2023-01-26T13:13:56.429Z,99263.19
2023-01-26T13:16:23.649Z,99264.09
2023-01-26T13:18:58.319Z,99252.78
2023-01-26T13:21:48.263Z,99255.53
2023-01-26T13:24:17.957Z,99257.88
2023-01-26T13:26:46.673Z,99261.44
2023-01-26T13:29:25.318Z,99266.00
2023-01-26T13:31:52.855Z,99266.00
2023-01-26T13:34:31.343Z,99264.09
2023-01-26T13:37:06.498Z,99266.00
2023-01-26T13:39:36.904Z,99268.22
2023-01-26T13:42:16.577Z,99268.34
2023-01-26T13:44:50.565Z,99266.75
2023-01-26T13:47:26.056Z,99265.13
2023-01-26T13:49:52.617Z,99264.22
2023-01-26T13:52:24.181Z,99264.38
2023-01-26T13:54:52.831Z,99266.69
2023-01-26T13:57:27.905Z,99262.00
2023-01-26T14:00:01.688Z,99269.03
2023-01-26T14:02:31.410Z,99258.88
2023-01-26T14:04:59.329Z,99257.38
2023-01-26T14:07:31.686Z,99257.38
2023-01-26T14:10:08.840Z,99264.91
2023-01-26T14:12:44.235Z,99266.50
2023-01-26T14:15:24.964Z,99261.44
2023-01-26T14:17:57.321Z,99261.63
2023-01-26T14:20:35.763Z,99257.09
2023-01-26T14:23:11.421Z,99259.78
2023-01-26T14:25:38.989Z,99265.88
2023-01-26T14:28:06.841Z,99265.59
2023-01-26T14:30:34.734Z,99266.00
2023-01-26T14:33:11.267Z,99273.66
2023-01-26T14:35:37.734Z,99275.28
2023-01-26T14:38:13.059Z,99275.34
2023-01-26T14:40:50.424Z,99271.84
2023-01-26T14:43:17.555Z,99273.50
2023-01-26T14:45:55.025Z,99272.91
2023-01-26T14:48:29.745Z,99281.72
2023-01-26T14:50:56.692Z,99287.81
2023-01-26T14:53:24.938Z,99285.69
2023-01-26T14:55:53.155Z,99286.50
2023-01-26T14:58:24.416Z,99287.19
2023-01-26T15:01:00.046Z,99292.53
2023-01-26T15:03:33.787Z,99290.94
2023-01-26T15:06:15.224Z,99296.25
2023-01-26T15:08:52.213Z,99299.66
2023-01-26T15:11:45.719Z,99305.59
2023-01-26T15:14:48.236Z,99294.47
2023-01-26T15:17:36.369Z,99290.16
2023-01-26T15:20:10.986Z,99297.97
2023-01-26T15:22:37.723Z,99292.44
2023-01-26T15:25:28.135Z,99290.88
2023-01-26T15:27:59.771Z,99284.56
2023-01-26T15:30:37.645Z,99292.38
2023-01-26T15:33:04.204Z,99297.59
2023-01-26T15:35:32.396Z,99302.84
2023-01-26T15:38:19.955Z,99302.91
2023-01-26T15:40:46.378Z,99302.84
2023-01-26T15:43:18.443Z,99298.34
2023-01-26T15:45:58.455Z,99300.19
2023-01-26T15:48:25.479Z,99303.47
2023-01-26T15:50:52.411Z,99301.06
2023-01-26T15:53:21.377Z,99309.00
2023-01-26T15:55:58.570Z,99299.44
2023-01-26T15:58:26.068Z,99301.00
2023-01-26T16:00:53.264Z,99301.00
2023-01-26T16:03:22.060Z,99301.75
2023-01-26T16:05:49.260Z,99299.34
2023-01-26T16:08:17.822Z,99294.16
2023-01-26T16:10:44.848Z,99303.75
2023-01-26T16:13:17.639Z,99309.75
2023-01-26T16:15:52.882Z,99308.06
2023-01-26T16:18:20.331Z,99306.28
2023-01-26T16:20:49.249Z,99309.75
2023-01-26T16:23:18.191Z,99304.88
2023-01-26T16:25:44.790Z,99309.91
2023-01-26T16:28:11.400Z,99314.81
2023-01-26T16:30:37.892Z,99315.78
2023-01-26T16:33:05.478Z,99322.69
2023-01-26T16:35:32.010Z,99315.72
2023-01-26T16:37:58.458Z,99309.63
2023-01-26T16:40:24.909Z,99304.44
2023-01-26T16:42:53.302Z,99309.91
2023-01-26T16:45:26.775Z,99303.88
2023-01-26T16:47:56.046Z,99304.69
2023-01-26T16:50:26.484Z,99303.88
2023-01-26T16:52:53.441Z,99309.31
2023-01-26T16:55:20.153Z,99306.94
2023-01-26T16:57:49.796Z,99301.72
2023-01-26T17:00:19.166Z,99304.31
2023-01-26T17:02:52.582Z,99295.56
2023-01-26T17:05:21.024Z,99308.06
2023-01-26T17:07:48.072Z,99308.13
2023-01-26T17:10:15.718Z,99303.63
2023-01-26T17:12:42.240Z,99309.72
2023-01-26T17:15:11.311Z,99306.34
2023-01-26T17:17:38.053Z,99303.63
2023-01-26T17:20:18.341Z,99310.66
2023-01-26T17:22:45.619Z,99308.06
2023-01-26T17:25:14.587Z,99313.97
2023-01-26T17:27:43.393Z,99320.00
2023-01-26T17:30:11.028Z,99314.88
2023-01-26T17:32:37.591Z,99320.25
2023-01-26T17:35:04.468Z,99326.25
2023-01-26T17:37:31.624Z,99326.16
2023-01-26T17:39:58.810Z,99321.78
2023-01-26T17:42:25.827Z,99324.31
2023-01-26T17:44:52.546Z,99332.34
2023-01-26T17:47:19.149Z,99327.16
2023-01-26T17:49:45.676Z,99327.34
2023-01-26T17:52:14.339Z,99319.56
2023-01-26T17:54:44.422Z,99310.84
2023-01-26T17:57:10.963Z,99316.81
2023-01-26T17:59:37.633Z,99322.84
2023-01-26T18:02:04.153Z,99315.09
2023-01-26T18:04:31.564Z,99314.28
2023-01-26T18:06:58.192Z,99314.22
2023-01-26T18:09:24.992Z,99313.31
2023-01-26T18:11:51.501Z,99312.44
2023-01-26T18:14:17.964Z,99315.16
2023-01-26T18:16:44.527Z,99316.00
2023-01-26T18:19:11.164Z,99320.38
2023-01-26T18:21:38.054Z,99319.41
2023-01-26T18:24:05.883Z,99325.50
2023-01-26T18:26:35.755Z,99321.34
2023-01-26T18:29:04.266Z,99322.97
2023-01-26T18:31:35.771Z,99321.19
2023-01-26T18:34:04.197Z,99322.22
2023-01-26T18:36:31.225Z,99317.78
2023-01-26T18:39:00.609Z,99326.47
2023-01-26T18:41:30.316Z,99335.03
2023-01-26T18:43:58.476Z,99336.06
2023-01-26T18:46:27.041Z,99334.34
2023-01-26T18:48:54.760Z,99328.19
2023-01-26T18:51:22.624Z,99336.06
2023-01-26T18:53:49.480Z,99343.78
2023-01-26T18:56:16.816Z,99341.19
2023-01-26T18:58:43.322Z,99335.31
2023-01-26T19:01:15.161Z,99343.09
2023-01-26T19:03:42.212Z,99335.31
2023-01-26T19:06:09.846Z,99331.75
2023-01-26T19:08:36.312Z,99342.97
2023-01-26T19:11:07.620Z,99336.66
2023-01-26T19:13:35.332Z,99334.13
2023-01-26T19:16:02.439Z,99336.94
2023-01-26T19:18:29.397Z,99332.56
2023-01-26T19:20:57.178Z,99330.84
2023-01-26T19:23:23.911Z,99329.22
2023-01-26T19:25:50.553Z,99338.72
2023-01-26T19:28:17.488Z,99336.13
2023-01-26T19:30:44.383Z,99337.91
2023-01-26T19:33:29.037Z,99336.06
2023-01-26T19:35:56.527Z,99342.16
2023-01-26T19:38:23.889Z,99336.94
2023-01-26T19:40:51.795Z,99349.19
2023-01-26T19:43:19.330Z,99351.88
2023-01-26T19:45:53.926Z,99352.63
2023-01-26T19:48:23.014Z,99352.63
2023-01-26T19:51:12.185Z,99363.03
2023-01-26T19:53:41.745Z,99357.91
2023-01-26T19:56:18.887Z,99355.22
2023-01-26T19:58:57.487Z,99349.28
2023-01-26T20:01:24.919Z,99353.75
2023-01-26T20:03:58.800Z,99349.28
2023-01-26T20:06:27.590Z,99349.44
2023-01-26T20:08:55.113Z,99340.66
2023-01-26T20:11:24.989Z,99345.06
2023-01-26T20:14:00.137Z,99348.44
2023-01-26T20:16:28.195Z,99348.56
2023-01-26T20:18:59.618Z,99348.69
2023-01-26T20:21:27.551Z,99347.78
2023-01-26T20:23:55.963Z,99348.75
2023-01-26T20:26:24.750Z,99347.72
2023-01-26T20:28:52.243Z,99346.84
2023-01-26T20:31:22.551Z,99340.81
2023-01-26T20:33:51.220Z,99346.91
2023-01-26T20:36:22.637Z,99346.84
2023-01-26T20:38:49.694Z,99344.22
2023-01-26T20:41:19.362Z,99354.66
2023-01-26T20:43:58.548Z,99343.25
2023-01-26T20:46:29.412Z,99344.22
2023-01-26T20:48:56.758Z,99346.97
2023-01-26T20:51:30.542Z,99347.03
2023-01-26T20:53:57.864Z,99350.59
2023-01-26T20:56:24.844Z,99352.25
2023-01-26T20:58:53.097Z,99352.25
2023-01-26T21:01:20.278Z,99355.75
2023-01-26T21:03:46.842Z,99350.53
2023-01-26T21:06:15.883Z,99353.13
2023-01-26T21:08:43.280Z,99348.97
2023-01-26T21:11:13.378Z,99351.50
2023-01-26T21:13:43.835Z,99353.22
2023-01-26T21:16:18.434Z,99353.13
2023-01-26T21:18:49.294Z,99349.66
2023-01-26T21:21:22.965Z,99347.03
2023-01-26T21:23:50.391Z,99349.78
2023-01-26T21:26:23.062Z,99355.22
2023-01-26T21:28:53.567Z,99353.66
2023-01-26T21:31:22.097Z,99358.91
2023-01-26T21:33:49.848Z,99350.28
2023-01-26T21:36:21.630Z,99350.22
2023-01-26T21:38:52.713Z,99341.66
2023-01-26T21:41:39.254Z,99337.34
2023-01-26T21:44:14.323Z,99346.72
2023-01-26T21:46:41.287Z,99344.94
2023-01-26T21:49:08.049Z,99343.22
2023-01-26T21:51:53.657Z,99355.28
2023-01-26T21:54:20.796Z,99345.91
2023-01-26T21:56:47.255Z,99341.66
2023-01-26T21:59:16.524Z,99347.69
2023-01-26T22:01:44.434Z,99352.13
2023-01-26T22:04:18.054Z,99353.13
2023-01-26T22:06:44.658Z,99352.88
2023-01-26T22:09:14.078Z,99352.88
2023-01-26T22:11:40.687Z,99351.94
2023-01-26T22:14:08.255Z,99352.81
2023-01-26T22:16:34.781Z,99358.03
2023-01-26T22:19:01.257Z,99355.34
2023-01-26T22:21:29.457Z,99351.94
2023-01-26T22:23:58.646Z,99349.25
2023-01-26T22:26:25.215Z,99343.84
2023-01-26T22:28:57.413Z,99343.84
2023-01-26T22:31:29.751Z,99350.75
2023-01-26T22:33:58.004Z,99338.72
2023-01-26T22:36:25.366Z,99343.84
2023-01-26T22:38:52.760Z,99349.84
2023-01-26T22:41:25.328Z,99356.88
2023-01-26T22:43:57.606Z,99343.03
2023-01-26T22:46:25.584Z,99347.41
2023-01-26T22:48:52.944Z,99347.56
2023-01-26T22:51:22.491Z,99346.72
2023-01-26T22:53:50.735Z,99349.53
2023-01-26T22:56:18.629Z,99351.25
2023-01-26T22:58:57.986Z,99351.09
2023-01-26T23:01:27.192Z,99358.16
2023-01-26T23:03:54.993Z,99340.00
2023-01-26T23:06:22.978Z,99347.81
2023-01-26T23:08:49.869Z,99349.63
2023-01-26T23:11:24.703Z,99345.22
2023-01-26T23:13:58.325Z,99348.63
2023-01-26T23:16:25.831Z,99351.25
2023-01-26T23:18:53.921Z,99348.44
2023-01-26T23:21:22.180Z,99344.06
2023-01-26T23:23:49.360Z,99344.19
2023-01-26T23:26:16.148Z,99348.50
2023-01-26T23:28:43.662Z,99347.81
2023-01-26T23:31:12.088Z,99343.50
2023-01-26T23:33:39.866Z,99347.69
2023-01-26T23:36:07.582Z,99352.75
2023-01-26T23:38:34.371Z,99344.06
2023-01-26T23:41:01.060Z,99346.84
2023-01-26T23:43:30.735Z,99343.44
2023-01-26T23:45:57.644Z,99339.88
2023-01-26T23:48:31.549Z,99349.47
2023-01-26T23:50:59.995Z,99347.81
2023-01-26T23:53:28.086Z,99341.66
2023-01-26T23:56:00.052Z,99346.84
2023-01-26T23:58:29.274Z,99343.44
